Time;durP1;ratioP1;P1;durP2;ratioP2;P2;SDS_P1;SDS_P2;PMS_P1;PMS_P2;Temp;Humidity;BMP_temperature;BMP_pressure;BME280_temperature;BME280_humidity;BME280_pressure;Samples;Min_cycle;Max_cycle;Signal;HPM_P1;HPM_P2
2023/07/26 00:00:26;;;;;;;;;4.75;4.75;;;;;18.11;45.20;100971.94;5028966;28;45218;-66
2023/07/26 00:02:51;;;;;;;;;2.50;2.25;;;;;18.13;45.11;100979.84;5042529;28;45176;-66
2023/07/26 00:05:17;;;;;;;;;4.00;4.00;;;;;18.12;45.38;100973.63;5041951;28;45288;-66
2023/07/26 00:07:42;;;;;;;;;3.00;3.00;;;;;18.11;45.46;100976.34;5042482;28;45200;-65
2023/07/26 00:10:08;;;;;;;;;4.75;3.75;;;;;18.10;45.26;100979.94;5023045;28;45328;-66
2023/07/26 00:12:33;;;;;;;;;5.50;4.00;;;;;18.09;45.53;100978.25;5042345;28;45232;-65
2023/07/26 00:14:58;;;;;;;;;2.00;1.00;;;;;18.05;45.32;100972.19;5042014;28;45408;-66
2023/07/26 00:17:24;;;;;;;;;3.25;3.25;;;;;18.07;45.26;100978.28;5042108;28;45486;-66
2023/07/26 00:19:49;;;;;;;;;3.50;3.50;;;;;17.99;45.31;100964.47;5042204;28;45427;-66
2023/07/26 00:22:15;;;;;;;;;4.50;4.00;;;;;18.05;45.27;100977.50;5041981;28;45316;-66
2023/07/26 00:24:40;;;;;;;;;4.00;4.00;;;;;18.03;45.29;100974.03;5041892;28;46176;-66
2023/07/26 00:27:05;;;;;;;;;4.00;4.00;;;;;18.06;45.37;100973.03;5041561;28;47211;-66
2023/07/26 00:29:31;;;;;;;;;8.00;5.75;;;;;18.06;45.31;100981.00;5042014;28;45561;-66
2023/07/26 00:31:56;;;;;;;;;6.25;5.25;;;;;18.00;45.44;100972.38;5042015;28;45344;-66
2023/07/26 00:34:22;;;;;;;;;5.00;4.00;;;;;18.01;45.37;100978.53;5053925;28;45425;-66
2023/07/26 00:36:47;;;;;;;;;7.00;5.00;;;;;18.00;45.58;100979.50;5041397;28;45513;-66
2023/07/26 00:39:13;;;;;;;;;6.50;6.50;;;;;18.01;45.56;100984.72;5041883;28;45316;-66
2023/07/26 00:41:39;;;;;;;;;4.00;4.00;;;;;18.00;45.61;100984.81;5033322;28;45214;-66
2023/07/26 00:44:04;;;;;;;;;6.00;6.00;;;;;17.99;45.54;100981.25;5041446;28;45317;-66
2023/07/26 00:46:30;;;;;;;;;4.25;4.25;;;;;17.96;45.50;100977.84;5041714;28;45216;-66
2023/07/26 00:48:58;;;;;;;;;6.75;6.75;;;;;17.98;45.76;100984.84;5041707;28;45236;-66
2023/07/26 00:51:24;;;;;;;;;5.00;4.50;;;;;17.98;45.67;100981.34;5033264;28;45365;-66
2023/07/26 00:53:49;;;;;;;;;6.50;6.00;;;;;17.97;45.80;100976.94;5041401;28;46195;-67
2023/07/26 00:56:15;;;;;;;;;4.75;4.25;;;;;17.98;45.72;100984.00;5041286;28;45344;-66
2023/07/26 00:58:41;;;;;;;;;4.75;4.00;;;;;17.97;45.77;100977.78;5036980;28;45415;-66
2023/07/26 01:01:06;;;;;;;;;7.00;7.00;;;;;17.96;45.71;100972.53;5023169;28;45522;-66
2023/07/26 01:03:31;;;;;;;;;4.00;4.00;;;;;17.93;45.98;100980.63;5041288;28;46097;-66
2023/07/26 01:06:28;;;;;;;;;5.25;5.25;;;;;17.92;46.10;100974.44;5040323;28;49239;-66
2023/07/26 01:09:27;;;;;;;;;5.25;5.25;;;;;17.89;45.97;100976.38;5030397;28;45308;-66
2023/07/26 01:12:06;;;;;;;;;6.00;4.25;;;;;17.87;46.32;100989.72;5027922;28;45215;-66
2023/07/26 01:14:56;;;;;;;;;7.00;7.00;;;;;17.84;46.19;100980.06;5039897;28;45340;-66
2023/07/26 01:17:21;;;;;;;;;5.25;4.50;;;;;17.82;46.31;100976.63;5041237;28;45291;-66
2023/07/26 01:19:47;;;;;;;;;5.75;5.50;;;;;17.80;46.34;100978.47;5026092;28;47383;-66
2023/07/26 01:22:12;;;;;;;;;7.50;4.50;;;;;17.77;46.37;100970.59;5041078;28;45339;-66
2023/07/26 01:24:37;;;;;;;;;8.50;7.25;;;;;17.76;46.44;100971.56;5040987;28;45307;-66
2023/07/26 01:27:03;;;;;;;;;5.00;5.00;;;;;17.80;46.25;100974.97;5040988;28;45161;-66
2023/07/26 01:29:28;;;;;;;;;5.00;5.00;;;;;17.80;46.44;100977.63;5041092;28;45148;-66
2023/07/26 01:31:54;;;;;;;;;6.00;6.00;;;;;17.75;46.10;100972.47;5041136;28;45444;-66
2023/07/26 01:34:20;;;;;;;;;7.75;5.00;;;;;17.78;46.41;100976.81;5035440;28;46346;-67
2023/07/26 01:36:45;;;;;;;;;5.00;5.00;;;;;17.75;46.46;100976.91;5040630;28;45354;-67
2023/07/26 01:39:12;;;;;;;;;7.00;7.00;;;;;17.72;46.25;100969.94;5036292;28;45245;-66
2023/07/26 01:41:39;;;;;;;;;4.25;4.25;;;;;17.73;46.25;100973.47;5038800;28;45595;-66
2023/07/26 01:44:04;;;;;;;;;8.00;6.00;;;;;17.74;46.50;100976.06;5046389;28;45313;-66
2023/07/26 01:46:29;;;;;;;;;6.00;6.00;;;;;17.71;46.63;100970.88;5047919;28;47465;-66
2023/07/26 01:48:55;;;;;;;;;5.25;5.25;;;;;17.70;46.57;100970.00;5040363;28;50200;-66
2023/07/26 01:51:20;;;;;;;;;6.25;5.00;;;;;17.67;46.24;100967.47;5040842;28;45166;-66
2023/07/26 01:53:45;;;;;;;;;4.00;4.00;;;;;17.69;46.41;100973.56;5040492;28;45262;-66
2023/07/26 01:56:11;;;;;;;;;6.50;4.75;;;;;17.66;46.51;100963.09;5040532;28;45162;-66
2023/07/26 01:58:36;;;;;;;;;6.50;6.00;;;;;17.68;46.51;100974.53;5036384;28;46328;-66
2023/07/26 02:01:03;;;;;;;;;5.00;4.00;;;;;17.67;46.92;100969.25;5031405;28;45284;-66
2023/07/26 02:03:29;;;;;;;;;6.25;6.25;;;;;17.66;46.65;100970.16;5040228;28;45625;-66
2023/07/26 02:05:54;;;;;;;;;6.50;4.50;;;;;17.64;46.57;100972.91;5040239;28;45322;-66
2023/07/26 02:08:19;;;;;;;;;6.00;6.00;;;;;17.63;46.62;100970.31;5040503;28;45255;-66
2023/07/26 02:10:45;;;;;;;;;3.25;3.25;;;;;17.61;46.54;100966.84;5027199;28;45334;-66
2023/07/26 02:13:10;;;;;;;;;5.00;5.00;;;;;17.60;46.70;100965.97;5040129;28;46275;-66
2023/07/26 02:15:36;;;;;;;;;7.50;5.25;;;;;17.60;46.65;100965.97;5040036;28;50513;-66
2023/07/26 02:18:01;;;;;;;;;6.00;4.75;;;;;17.60;46.61;100970.44;5039152;28;45382;-66
2023/07/26 02:20:27;;;;;;;;;6.50;5.50;;;;;17.58;46.83;100973.13;5040083;28;45391;-66
2023/07/26 02:22:53;;;;;;;;;7.25;5.75;;;;;17.58;46.74;100970.47;5040086;28;45308;-66
2023/07/26 02:25:19;;;;;;;;;4.25;4.25;;;;;17.54;46.86;100972.38;5047382;28;45347;-66
2023/07/26 02:27:44;;;;;;;;;7.50;6.25;;;;;17.53;46.74;100967.16;5039492;28;54455;-66
2023/07/26 02:30:10;;;;;;;;;5.25;3.00;;;;;17.53;46.91;100976.00;5040038;28;48196;-66
2023/07/26 02:32:35;;;;;;;;;3.00;3.00;;;;;17.52;46.95;100978.69;5039893;28;45254;-67
2023/07/26 02:35:01;;;;;;;;;6.00;4.00;;;;;17.50;46.71;100970.78;5039679;28;45285;-66
2023/07/26 02:37:26;;;;;;;;;4.75;4.75;;;;;17.49;46.73;100974.38;5039860;28;45262;-66
2023/07/26 02:39:51;;;;;;;;;5.50;5.50;;;;;17.47;46.76;100968.28;5038563;28;48463;-66
2023/07/26 02:42:17;;;;;;;;;6.00;5.00;;;;;17.45;46.96;100975.44;5038325;28;45402;-66
2023/07/26 02:44:43;;;;;;;;;6.75;6.75;;;;;17.43;46.61;100974.59;5039927;28;45313;-66
2023/07/26 02:47:08;;;;;;;;;6.50;4.75;;;;;17.41;47.16;100971.16;5039851;28;45215;-66
2023/07/26 02:49:33;;;;;;;;;4.00;4.00;;;;;17.35;46.85;100968.75;5039831;28;49272;-66
2023/07/26 02:51:59;;;;;;;;;4.50;4.50;;;;;17.34;47.03;100972.31;5039425;28;46289;-66
2023/07/26 02:54:24;;;;;;;;;6.50;4.00;;;;;17.33;46.99;100976.78;5039755;28;45265;-66
2023/07/26 02:56:49;;;;;;;;;4.00;4.00;;;;;17.29;46.94;100969.84;5039445;28;45497;-66
2023/07/26 02:59:15;;;;;;;;;8.75;5.00;;;;;17.26;47.23;100969.09;5030330;28;45388;-66
2023/07/26 03:01:40;;;;;;;;;2.00;2.00;;;;;17.26;46.72;100963.78;5035759;28;45710;-66
2023/07/26 03:04:06;;;;;;;;;8.00;5.50;;;;;17.23;46.94;100962.09;5039625;28;45357;-66
2023/07/26 03:06:31;;;;;;;;;6.00;5.00;;;;;17.22;47.24;100963.91;5039552;28;45231;-66
2023/07/26 03:08:56;;;;;;;;;5.00;5.00;;;;;17.20;47.00;100967.53;5032174;28;45409;-66
2023/07/26 03:11:22;;;;;;;;;5.00;4.00;;;;;17.19;46.97;100976.44;5037226;28;46537;-66
2023/07/26 03:13:47;;;;;;;;;5.00;5.00;;;;;17.13;47.25;100958.06;5039459;28;45729;-66
2023/07/26 03:16:16;;;;;;;;;6.00;5.00;;;;;17.11;47.37;100966.09;5039532;28;45481;-66
2023/07/26 03:18:42;;;;;;;;;5.75;5.00;;;;;17.07;47.24;100972.47;5039638;28;45475;-66
2023/07/26 03:21:07;;;;;;;;;9.25;5.50;;;;;17.02;47.14;100974.44;5039035;28;45336;-66
2023/07/26 03:23:34;;;;;;;;;6.00;6.00;;;;;17.00;47.21;100976.25;5039736;28;45370;-66
2023/07/26 03:26:00;;;;;;;;;5.00;5.00;;;;;16.95;47.71;100980.88;5039347;28;46222;-66
2023/07/26 03:28:25;;;;;;;;;8.00;6.00;;;;;16.90;47.61;100975.69;5039383;28;45331;-66
2023/07/26 03:30:50;;;;;;;;;5.25;4.00;;;;;16.88;47.68;100982.88;5042214;28;48372;-66
2023/07/26 03:33:15;;;;;;;;;4.50;4.50;;;;;16.85;47.61;100977.66;5052501;28;52732;-66
2023/07/26 03:35:41;;;;;;;;;3.00;3.00;;;;;16.83;47.51;100985.69;5046006;28;45395;-66
2023/07/26 03:38:06;;;;;;;;;6.00;4.50;;;;;16.78;47.09;100984.09;5042841;28;45464;-66
2023/07/26 03:40:31;;;;;;;;;5.50;4.25;;;;;16.73;47.65;100979.84;5042455;28;47825;-66
2023/07/26 03:42:57;;;;;;;;;6.00;6.00;;;;;16.72;47.96;100983.41;5042772;28;45304;-66
2023/07/26 03:45:22;;;;;;;;;6.25;4.50;;;;;16.71;48.00;100983.47;5037678;28;45523;-66
2023/07/26 03:47:48;;;;;;;;;5.50;5.00;;;;;16.65;47.72;100989.84;5052372;28;45553;-66
2023/07/26 03:50:13;;;;;;;;;6.00;5.00;;;;;16.58;47.77;100989.22;5040144;28;45378;-66
2023/07/26 03:52:38;;;;;;;;;6.50;5.50;;;;;16.62;47.84;100992.63;5042591;28;45276;-66
2023/07/26 03:55:04;;;;;;;;;5.25;4.00;;;;;16.58;48.08;100997.16;5041994;28;53213;-66
2023/07/26 03:57:29;;;;;;;;;3.75;3.75;;;;;16.56;47.61;100991.06;5042431;28;45333;-66
2023/07/26 03:59:55;;;;;;;;;4.50;4.00;;;;;16.54;47.99;100987.59;5028785;28;46372;-66
2023/07/26 04:02:20;;;;;;;;;3.00;3.00;;;;;16.53;47.91;100985.84;5036124;28;51590;-66
2023/07/26 04:04:45;;;;;;;;;8.25;5.00;;;;;16.54;47.68;100976.09;5052014;28;45381;-66
2023/07/26 04:07:11;;;;;;;;;7.00;5.00;;;;;16.51;47.95;100985.03;5042538;28;45506;-66
2023/07/26 04:09:36;;;;;;;;;5.00;5.00;;;;;16.50;47.93;100977.13;5038666;28;45452;-66
2023/07/26 04:12:01;;;;;;;;;7.00;6.25;;;;;16.54;48.12;100981.41;5042172;28;45141;-66
2023/07/26 04:14:27;;;;;;;;;4.50;4.50;;;;;16.54;48.01;100979.63;5042363;28;45409;-66
2023/07/26 04:16:52;;;;;;;;;7.00;7.00;;;;;16.53;48.31;100972.59;5042074;28;45436;-66
2023/07/26 04:19:17;;;;;;;;;5.00;4.00;;;;;16.53;48.32;100979.69;5042011;28;45257;-66
2023/07/26 04:21:42;;;;;;;;;6.00;5.50;;;;;16.54;47.79;100978.75;5041937;28;45259;-66
2023/07/26 04:24:08;;;;;;;;;6.25;5.00;;;;;16.54;48.12;100984.06;5042158;28;45167;-66
2023/07/26 04:26:33;;;;;;;;;6.00;5.00;;;;;16.55;47.96;100983.13;5050315;28;50498;-66
2023/07/26 04:28:59;;;;;;;;;10.75;7.00;;;;;16.55;48.12;100983.13;5046876;28;45491;-66
2023/07/26 04:31:24;;;;;;;;;5.00;5.00;;;;;16.54;48.00;100970.78;5042021;28;45408;-66
2023/07/26 04:33:49;;;;;;;;;5.00;5.00;;;;;16.54;47.98;100976.09;5042152;28;45335;-66
2023/07/26 04:36:15;;;;;;;;;5.25;5.25;;;;;16.54;48.01;100979.63;5035069;28;45304;-66
2023/07/26 04:38:40;;;;;;;;;8.25;6.00;;;;;16.54;48.55;100981.41;5041704;28;46085;-66
2023/07/26 04:41:05;;;;;;;;;5.50;5.50;;;;;16.52;48.40;100972.66;5040738;28;45336;-66
2023/07/26 04:43:31;;;;;;;;;7.00;7.00;;;;;16.53;48.49;100977.91;5041860;28;45291;-66
2023/07/26 04:45:56;;;;;;;;;8.25;7.00;;;;;16.53;48.21;100977.91;5041765;28;45371;-66
2023/07/26 04:48:21;;;;;;;;;6.00;5.50;;;;;16.48;48.27;100973.69;5041473;28;46332;-66
2023/07/26 04:50:48;;;;;;;;;8.75;6.00;;;;;16.53;48.57;100983.19;5041607;28;45383;-66
2023/07/26 04:53:14;;;;;;;;;10.50;8.50;;;;;16.52;48.72;100986.78;5028634;28;45307;-66
2023/07/26 04:55:44;;;;;;;;;6.00;5.50;;;;;16.51;48.18;100985.03;5041452;28;45228;-66
2023/07/26 04:58:10;;;;;;;;;9.00;7.25;;;;;16.52;48.59;100981.47;5040806;28;45427;-66
2023/07/26 05:00:40;;;;;;;;;7.00;4.00;;;;;16.51;48.32;100982.38;5028723;28;45444;-66
2023/07/26 05:03:06;;;;;;;;;10.75;10.50;;;;;16.51;48.30;100987.69;5041476;28;45321;-66
2023/07/26 05:05:35;;;;;;;;;8.00;6.25;;;;;16.52;48.22;100986.78;5041301;28;45324;-66
2023/07/26 05:08:02;;;;;;;;;9.50;9.00;;;;;16.50;48.59;100982.44;5041131;28;46252;-66
2023/07/26 05:10:28;;;;;;;;;13.25;11.50;;;;;16.52;48.62;100989.41;5039113;28;45440;-66
2023/07/26 05:12:55;;;;;;;;;11.50;10.00;;;;;16.51;48.60;100992.13;5043135;28;45485;-66
2023/07/26 05:15:21;;;;;;;;;6.75;6.50;;;;;16.51;48.43;100997.44;5041406;28;45253;-66
2023/07/26 05:17:46;;;;;;;;;10.00;6.75;;;;;16.50;48.84;100991.28;5040644;28;45213;-67
2023/07/26 05:20:12;;;;;;;;;7.50;7.50;;;;;16.51;48.74;100998.28;5040948;28;45354;-66
2023/07/26 05:22:38;;;;;;;;;8.50;6.25;;;;;16.47;48.86;100999.34;5040735;28;45311;-66
2023/07/26 05:25:04;;;;;;;;;20.50;20.50;;;;;16.45;49.00;101001.16;5040882;28;45493;-67
2023/07/26 05:27:30;;;;;;;;;10.25;9.25;;;;;16.45;48.68;101010.91;5043872;28;46651;-66
2023/07/26 05:29:57;;;;;;;;;10.00;10.00;;;;;16.42;48.92;101004.78;5039646;28;45515;-66
2023/07/26 05:32:23;;;;;;;;;14.50;11.75;;;;;16.45;48.80;101011.78;5040837;28;45312;-66
2023/07/26 05:34:48;;;;;;;;;11.25;9.00;;;;;16.40;49.32;101003.09;5040667;28;45308;-65
2023/07/26 05:37:13;;;;;;;;;5.00;5.00;;;;;16.40;48.99;101009.28;5040520;28;47990;-66
2023/07/26 05:39:39;;;;;;;;;8.25;8.25;;;;;16.40;49.17;101014.59;5041027;28;45442;-66
2023/07/26 05:42:04;;;;;;;;;12.75;7.25;;;;;16.38;49.45;101010.28;5040429;28;48473;-66
2023/07/26 05:44:30;;;;;;;;;7.50;7.50;;;;;16.39;49.33;101012.88;5032893;28;45324;-66
2023/07/26 05:46:55;;;;;;;;;11.25;7.00;;;;;16.39;49.33;101018.16;5043571;28;58423;-66
2023/07/26 05:49:20;;;;;;;;;7.50;7.50;;;;;16.39;48.98;101020.81;5040720;28;48142;-66
2023/07/26 05:51:45;;;;;;;;;9.25;8.50;;;;;16.39;49.38;101017.31;5040341;28;45237;-66
2023/07/26 05:54:11;;;;;;;;;10.75;8.25;;;;;16.38;49.37;101016.44;5040597;28;45287;-66
2023/07/26 05:56:36;;;;;;;;;11.75;9.75;;;;;16.41;49.26;101024.28;5040400;28;46110;-66
2023/07/26 05:59:01;;;;;;;;;12.00;11.50;;;;;16.39;49.57;101031.44;5032968;28;45400;-66
2023/07/26 06:01:27;;;;;;;;;17.50;14.00;;;;;16.37;49.77;101027.09;5034653;28;45320;-66
2023/07/26 06:03:53;;;;;;;;;10.75;9.75;;;;;16.39;49.74;101030.56;5040542;28;45309;-66
2023/07/26 06:06:19;;;;;;;;;10.50;9.25;;;;;16.38;49.57;101037.66;5040222;28;46365;-66
2023/07/26 06:08:44;;;;;;;;;11.00;9.50;;;;;16.40;50.10;101042.88;5040767;28;46178;-66
2023/07/26 06:11:09;;;;;;;;;11.00;10.25;;;;;16.39;49.82;101034.09;5037892;28;45332;-66
2023/07/26 06:13:35;;;;;;;;;11.75;10.75;;;;;16.42;49.81;101041.06;5040289;28;45463;-66
2023/07/26 06:16:00;;;;;;;;;17.00;14.75;;;;;16.41;49.99;101041.97;5040198;28;45627;-66
2023/07/26 06:18:26;;;;;;;;;10.75;10.00;;;;;16.38;50.04;101032.34;5034965;28;45331;-66
2023/07/26 06:20:51;;;;;;;;;12.75;9.25;;;;;16.40;50.09;101037.59;5053191;28;45295;-66
2023/07/26 06:23:16;;;;;;;;;11.75;10.75;;;;;16.40;50.09;101035.81;5039865;28;46387;-66
2023/07/26 06:25:42;;;;;;;;;9.00;6.25;;;;;16.45;49.91;101050.69;5039921;28;46504;-66
2023/07/26 06:28:07;;;;;;;;;11.50;8.50;;;;;16.45;49.89;101048.06;5039623;28;53192;-67
2023/07/26 06:30:32;;;;;;;;;10.50;9.50;;;;;16.49;50.36;101054.97;5040081;28;45214;-67
2023/07/26 06:32:57;;;;;;;;;11.25;9.00;;;;;16.50;50.44;101060.25;5039837;28;45434;-68
2023/07/26 06:35:23;;;;;;;;;8.75;6.25;;;;;16.53;50.51;101052.19;5038231;28;47027;-67
2023/07/26 06:37:48;;;;;;;;;7.75;7.75;;;;;16.55;50.66;101052.13;5039887;28;45257;-68
2023/07/26 06:40:13;;;;;;;;;9.25;8.50;;;;;16.61;50.52;101059.00;5039455;28;48578;-67
2023/07/26 06:42:39;;;;;;;;;7.00;4.00;;;;;16.65;50.38;101060.63;5040113;28;45264;-68
2023/07/26 06:45:05;;;;;;;;;10.75;8.25;;;;;16.67;50.61;101057.00;5039591;28;46061;-68
2023/07/26 06:47:30;;;;;;;;;11.50;6.50;;;;;16.68;50.45;101061.41;5039737;28;45208;-68
2023/07/26 06:49:55;;;;;;;;;11.00;8.50;;;;;16.75;50.53;101059.38;5039750;28;45230;-68
2023/07/26 06:52:21;;;;;;;;;5.75;5.25;;;;;16.81;50.46;101056.53;5039509;28;45213;-67
2023/07/26 06:54:46;;;;;;;;;9.00;8.75;;;;;16.79;50.62;101047.75;5039390;28;46121;-66
2023/07/26 06:57:11;;;;;;;;;7.00;7.00;;;;;16.90;50.63;101061.53;5039712;28;45478;-60
2023/07/26 06:59:37;;;;;;;;;8.75;8.25;;;;;16.96;50.80;101057.78;5027730;28;45218;-61
2023/07/26 07:02:05;;;;;;;;;7.00;6.00;;;;;17.01;50.82;101062.94;5038706;28;45578;-61
2023/07/26 07:04:33;;;;;;;;;8.50;6.00;;;;;17.03;51.05;101061.97;5040687;28;45304;-61
2023/07/26 07:06:58;;;;;;;;;5.25;5.00;;;;;17.09;51.11;101063.53;5042692;28;45382;-60
2023/07/26 07:09:24;;;;;;;;;7.00;6.50;;;;;17.08;51.28;101051.19;5041006;28;45491;-60
2023/07/26 07:11:50;;;;;;;;;6.25;5.25;;;;;17.17;51.13;101058.81;5029972;28;45510;-60
2023/07/26 07:14:15;;;;;;;;;5.00;5.00;;;;;17.22;51.16;101058.66;5042867;28;46110;-60
2023/07/26 07:16:40;;;;;;;;;6.00;5.50;;;;;17.25;51.38;101061.19;5042582;28;45327;-61
2023/07/26 07:19:06;;;;;;;;;5.00;5.00;;;;;17.31;51.24;101062.75;5043300;28;45293;-60
2023/07/26 07:21:31;;;;;;;;;6.75;6.75;;;;;17.36;51.31;101056.34;5042453;28;45525;-60
2023/07/26 07:23:56;;;;;;;;;10.50;8.25;;;;;17.38;51.41;101057.16;5042406;28;49648;-60
2023/07/26 07:26:22;;;;;;;;;6.75;6.00;;;;;17.44;51.24;101063.16;5042690;28;45288;-60
2023/07/26 07:28:47;;;;;;;;;5.25;3.50;;;;;17.50;51.10;101065.59;5043014;28;45366;-62
2023/07/26 07:31:12;;;;;;;;;6.50;5.25;;;;;17.54;51.34;101067.19;5042794;28;45250;-60
2023/07/26 07:33:38;;;;;;;;;5.25;5.00;;;;;17.57;51.26;101061.75;5042862;28;45289;-61
2023/07/26 07:36:04;;;;;;;;;5.00;5.00;;;;;17.61;51.16;101063.38;5055438;28;45472;-61
2023/07/26 07:38:30;;;;;;;;;5.00;5.00;;;;;17.69;51.19;101073.72;5042062;28;45365;-61
2023/07/26 07:40:56;;;;;;;;;6.00;5.75;;;;;17.74;51.27;101074.38;5049837;28;45317;-61
2023/07/26 07:43:21;;;;;;;;;4.75;4.50;;;;;17.80;51.44;101067.97;5048907;28;54754;-61
2023/07/26 07:45:46;;;;;;;;;8.00;5.25;;;;;17.83;51.24;101068.69;5055385;28;45395;-61
2023/07/26 07:48:12;;;;;;;;;9.25;4.00;;;;;17.87;51.24;101069.44;5042829;28;45426;-61
2023/07/26 07:50:37;;;;;;;;;8.75;4.00;;;;;17.91;51.40;101054.25;5042453;28;45320;-61
2023/07/26 07:53:03;;;;;;;;;4.75;1.75;;;;;17.96;51.20;101065.59;5042453;28;46207;-61
2023/07/26 07:55:31;;;;;;;;;5.00;4.25;;;;;18.00;51.14;101059.25;5028524;28;45671;-61
2023/07/26 07:57:58;;;;;;;;;3.00;3.00;;;;;18.06;51.31;101064.28;5042644;28;45235;-61
2023/07/26 08:00:23;;;;;;;;;8.00;4.25;;;;;18.10;51.01;101055.28;5028845;28;45490;-61
2023/07/26 08:02:49;;;;;;;;;4.25;4.00;;;;;18.14;51.29;101062.19;5042305;28;49573;-62
2023/07/26 08:05:14;;;;;;;;;3.75;3.75;;;;;18.18;51.10;101057.63;5042029;28;46140;-61
2023/07/26 08:07:39;;;;;;;;;6.25;5.75;;;;;18.22;51.10;101047.72;5042501;28;45371;-61
2023/07/26 08:10:05;;;;;;;;;7.50;4.50;;;;;18.26;51.11;101055.50;5024901;28;49064;-61
2023/07/26 08:12:34;;;;;;;;;7.00;6.00;;;;;18.31;50.84;101066.84;5042090;28;45497;-61
2023/07/26 08:15:00;;;;;;;;;6.00;4.75;;;;;18.34;51.43;101056.06;5041946;28;45242;-61
2023/07/26 08:17:25;;;;;;;;;6.00;6.00;;;;;18.37;51.07;101055.06;5042168;28;45338;-61
2023/07/26 08:19:51;;;;;;;;;4.25;4.00;;;;;18.42;51.12;101054.88;5041842;28;45337;-61
2023/07/26 08:22:16;;;;;;;;;3.25;3.25;;;;;18.47;51.02;101063.53;5031283;28;47033;-61
2023/07/26 08:24:41;;;;;;;;;5.25;5.25;;;;;18.51;51.29;101060.69;5042086;28;45222;-61
2023/07/26 08:27:07;;;;;;;;;8.00;4.75;;;;;18.57;51.11;101064.00;5040507;28;48575;-61
2023/07/26 08:29:32;;;;;;;;;4.75;4.75;;;;;18.48;51.27;101052.81;5037350;28;45625;-61
2023/07/26 08:31:57;;;;;;;;;5.75;5.00;;;;;18.63;50.78;101069.94;5041971;28;46223;-61
2023/07/26 08:34:23;;;;;;;;;3.50;2.50;;;;;18.66;50.79;101067.13;5041523;28;45233;-61
2023/07/26 08:36:48;;;;;;;;;4.00;3.50;;;;;18.72;50.74;101062.50;5041902;28;45250;-61
2023/07/26 08:39:14;;;;;;;;;3.00;3.00;;;;;18.76;50.94;101062.28;5041886;28;45206;-61
2023/07/26 08:41:40;;;;;;;;;8.25;7.25;;;;;18.79;50.50;101069.25;5041765;28;45316;-61
2023/07/26 08:44:08;;;;;;;;;5.00;4.00;;;;;18.80;50.39;101055.91;5041579;28;45390;-62
2023/07/26 08:46:38;;;;;;;;;5.25;4.00;;;;;18.86;50.62;101064.56;5041717;28;45396;-62
2023/07/26 08:49:03;;;;;;;;;4.75;3.75;;;;;18.89;50.37;101061.75;5041654;28;45523;-61
2023/07/26 08:51:30;;;;;;;;;2.00;1.75;;;;;18.94;50.26;101054.44;5041346;28;45228;-61
2023/07/26 08:53:57;;;;;;;;;4.50;3.75;;;;;19.02;50.15;101064.75;5041899;28;45434;-61
2023/07/26 08:56:27;;;;;;;;;3.25;3.25;;;;;19.07;50.06;101058.31;5028795;28;45332;-62
2023/07/26 08:58:52;;;;;;;;;6.25;5.00;;;;;19.10;50.65;101057.28;5035209;28;46254;-62
2023/07/26 09:01:17;;;;;;;;;5.75;3.75;;;;;19.20;50.34;101055.09;5034582;28;45282;-61
2023/07/26 09:03:43;;;;;;;;;4.25;3.50;;;;;19.25;49.88;101053.06;5041256;28;45217;-62
2023/07/26 09:06:08;;;;;;;;;4.25;3.25;;;;;19.27;49.94;101052.06;5041486;28;45792;-61
2023/07/26 09:08:34;;;;;;;;;4.50;4.50;;;;;19.34;49.46;101052.63;5041383;28;45428;-62
2023/07/26 09:11:03;;;;;;;;;2.25;2.25;;;;;19.41;49.86;101050.59;5039262;28;45369;-62
2023/07/26 09:13:28;;;;;;;;;3.50;2.25;;;;;19.49;49.37;101056.41;5036912;28;45528;-62
2023/07/26 09:15:54;;;;;;;;;5.00;2.00;;;;;19.57;48.75;101045.38;5041281;28;45503;-62
2023/07/26 09:18:19;;;;;;;;;4.00;3.00;;;;;19.62;49.09;101048.69;5041432;28;45421;-62
2023/07/26 09:20:45;;;;;;;;;4.00;4.00;;;;;19.66;48.68;101050.28;5040797;28;46947;-62
2023/07/26 09:23:12;;;;;;;;;4.00;3.00;;;;;19.74;48.52;101047.25;5041149;28;45179;-62
2023/07/26 09:25:39;;;;;;;;;2.25;2.25;;;;;19.79;48.49;101056.75;5041073;28;45229;-62
2023/07/26 09:28:15;;;;;;;;;3.50;3.50;;;;;19.86;48.13;101049.38;5040386;28;45400;-62
2023/07/26 09:30:42;;;;;;;;;4.00;2.75;;;;;19.92;48.09;101045.53;5042999;28;46247;-62
2023/07/26 09:33:09;;;;;;;;;4.00;4.00;;;;;20.00;48.13;101054.03;5052064;28;45423;-61
2023/07/26 09:35:43;;;;;;;;;3.00;3.00;;;;;20.05;47.67;101059.13;5040606;28;45561;-62
2023/07/26 09:38:10;;;;;;;;;3.00;2.75;;;;;20.10;48.23;101049.97;5040571;28;45485;-62
2023/07/26 09:40:36;;;;;;;;;3.00;3.00;;;;;20.16;47.85;101055.94;5040492;28;46321;-62
2023/07/26 09:43:02;;;;;;;;;2.50;2.50;;;;;20.20;47.58;101047.72;5040768;28;45253;-62
2023/07/26 09:45:27;;;;;;;;;3.00;2.50;;;;;20.25;47.92;101059.00;5040833;28;45226;-62
2023/07/26 09:48:04;;;;;;;;;3.25;2.00;;;;;20.30;47.10;101054.31;5040860;28;45531;-62
2023/07/26 09:50:32;;;;;;;;;4.25;3.25;;;;;20.39;47.07;101066.31;5040268;28;46104;-62
2023/07/26 09:52:57;;;;;;;;;4.00;3.00;;;;;20.46;46.87;101067.75;5040672;28;45499;-62
2023/07/26 09:55:25;;;;;;;;;4.00;2.00;;;;;20.55;47.01;101066.44;5040562;28;45471;-62
2023/07/26 09:57:53;;;;;;;;;2.50;2.50;;;;;20.63;47.11;101066.03;5040706;28;45174;-62
2023/07/26 10:00:19;;;;;;;;;1.25;1.00;;;;;20.71;46.53;101063.84;5023766;28;45373;-62
2023/07/26 10:02:59;;;;;;;;;2.00;0.25;;;;;20.74;46.08;101054.81;5040304;28;45414;-62
2023/07/26 10:05:26;;;;;;;;;1.75;0.50;;;;;20.87;45.89;101065.72;5012708;28;45320;-62
2023/07/26 10:07:52;;;;;;;;;1.00;1.00;;;;;20.92;45.90;101069.88;5058948;28;45698;-62
2023/07/26 10:10:19;;;;;;;;;3.00;3.00;;;;;21.03;46.04;101082.69;5037443;28;45290;-62
2023/07/26 10:12:46;;;;;;;;;3.00;1.00;;;;;21.15;45.83;101072.28;5027989;28;45348;-62
2023/07/26 10:15:13;;;;;;;;;1.50;1.25;;;;;21.21;45.30;101058.59;5040397;28;45347;-61
2023/07/26 10:17:40;;;;;;;;;2.50;2.00;;;;;21.40;45.18;101071.81;5032938;28;45501;-61
2023/07/26 10:20:09;;;;;;;;;2.00;2.00;;;;;21.55;45.07;101067.44;5039936;28;46257;-61
2023/07/26 10:22:34;;;;;;;;;1.25;1.00;;;;;21.72;44.98;101071.88;5040053;28;45298;-61
2023/07/26 10:24:59;;;;;;;;;1.25;1.25;;;;;21.92;45.27;101066.28;5040123;28;45327;-61
2023/07/26 10:27:25;;;;;;;;;2.25;2.25;;;;;22.16;45.37;101060.47;5039700;28;54946;-61
2023/07/26 10:29:50;;;;;;;;;1.75;1.75;;;;;22.44;45.11;101060.69;5048496;28;46179;-61
2023/07/26 10:32:16;;;;;;;;;4.00;3.00;;;;;22.73;45.06;101067.00;5045173;28;45330;-61
2023/07/26 10:34:41;;;;;;;;;1.50;1.50;;;;;23.00;45.08;101052.84;5040026;28;45388;-62
2023/07/26 10:37:18;;;;;;;;;3.00;2.00;;;;;23.32;45.02;101053.56;5039858;28;45329;-62
2023/07/26 10:39:44;;;;;;;;;2.50;2.50;;;;;23.66;44.87;101058.56;5038815;28;46377;-62
2023/07/26 10:42:28;;;;;;;;;3.25;3.00;;;;;23.99;44.34;101068.97;5039584;28;45441;-62
2023/07/26 10:44:59;;;;;;;;;2.50;1.25;;;;;24.31;44.24;101054.38;5039987;28;45355;-62
2023/07/26 10:47:24;;;;;;;;;4.25;2.75;;;;;24.65;43.71;101052.97;5039832;28;45269;-62
2023/07/26 10:49:54;;;;;;;;;2.00;2.00;;;;;24.98;42.61;101048.91;5028355;28;46930;-62
2023/07/26 10:52:20;;;;;;;;;1.00;1.00;;;;;25.26;42.27;101049.63;5026905;28;45359;-62
2023/07/26 10:54:50;;;;;;;;;1.50;1.50;;;;;25.57;42.13;101052.84;5039847;28;45199;-61
2023/07/26 10:57:31;;;;;;;;;1.50;1.50;;;;;25.91;41.86;101061.13;5039840;28;45452;-61
2023/07/26 11:00:10;;;;;;;;;1.50;1.00;;;;;26.31;41.61;101051.88;5026003;28;45948;-62
2023/07/26 11:02:48;;;;;;;;;1.75;1.75;;;;;26.65;40.92;101054.69;5039672;28;45463;-62
2023/07/26 11:05:23;;;;;;;;;0.50;0.00;;;;;27.00;41.32;101047.56;5052753;28;45331;-62
2023/07/26 11:08:00;;;;;;;;;2.00;1.00;;;;;27.38;40.09;101047.19;5039622;28;45522;-62
2023/07/26 11:10:38;;;;;;;;;6.25;3.75;;;;;27.72;40.43;101057.09;5015079;28;46657;-62
2023/07/26 11:13:06;;;;;;;;;2.00;2.00;;;;;28.03;39.98;101059.97;5039409;28;45245;-62
2023/07/26 11:15:34;;;;;;;;;1.00;1.00;;;;;28.28;39.86;101058.78;5039662;28;45323;-61
2023/07/26 11:18:00;;;;;;;;;1.75;1.75;;;;;28.50;38.93;101057.84;5039352;28;45474;-62
2023/07/26 11:20:25;;;;;;;;;1.00;1.00;;;;;28.69;38.93;101050.84;5039250;28;46121;-62